sensor_id;sensor_type;location;lat;lon;timestamp;pressure;altitude;pressure_sealevel;temperature;humidity
7888;BME280;3989;48.810;9.208;2023-01-29T00:01:10;99940.47;;;0.07;100.00
7888;BME280;3989;48.810;9.208;2023-01-29T00:03:36;99951.25;;;0.18;100.00
7888;BME280;3989;48.810;9.208;2023-01-29T00:06:04;99963.53;;;0.18;100.00
7888;BME280;3989;48.810;9.208;2023-01-29T00:08:33;99961.66;;;0.20;100.00
7888;BME280;3989;48.810;9.208;2023-01-29T00:11:01;99945.66;;;0.09;100.00
7888;BME280;3989;48.810;9.208;2023-01-29T00:13:28;99962.66;;;0.17;100.00
7888;BME280;3989;48.810;9.208;2023-01-29T00:15:56;99967.91;;;0.17;100.00
7888;BME280;3989;48.810;9.208;2023-01-29T00:18:24;99952.16;;;0.17;100.00
7888;BME280;3989;48.810;9.208;2023-01-29T00:20:52;99948.78;;;0.15;100.00
7888;BME280;3989;48.810;9.208;2023-01-29T00:23:18;99965.22;;;0.19;100.00
7888;BME280;3989;48.810;9.208;2023-01-29T00:25:47;99958.19;;;0.19;100.00
7888;BME280;3989;48.810;9.208;2023-01-29T00:28:14;99959.97;;;0.19;100.00
7888;BME280;3989;48.810;9.208;2023-01-29T00:30:41;99966.25;;;0.16;100.00
7888;BME280;3989;48.810;9.208;2023-01-29T00:33:08;99963.75;;;0.13;100.00
7888;BME280;3989;48.810;9.208;2023-01-29T00:35:38;99906.94;;;-0.19;100.00
7888;BME280;3989;48.810;9.208;2023-01-29T00:38:05;99947.38;;;0.10;100.00
7888;BME280;3989;48.810;9.208;2023-01-29T00:40:31;99953.13;;;0.16;100.00
7888;BME280;3989;48.810;9.208;2023-01-29T00:43:21;99961.91;;;0.15;100.00
7888;BME280;3989;48.810;9.208;2023-01-29T00:56:26;99884.97;;;-0.32;100.00
7888;BME280;3989;48.810;9.208;2023-01-29T00:58:55;99907.38;;;-0.11;100.00
7888;BME280;3989;48.810;9.208;2023-01-29T01:01:22;99939.16;;;0.00;100.00
7888;BME280;3989;48.810;9.208;2023-01-29T01:04:03;99918.13;;;-0.16;100.00
7888;BME280;3989;48.810;9.208;2023-01-29T01:06:30;99953.53;;;0.09;100.00
7888;BME280;3989;48.810;9.208;2023-01-29T01:08:57;99964.88;;;0.09;100.00
7888;BME280;3989;48.810;9.208;2023-01-29T01:11:41;99936.19;;;0.06;100.00
7888;BME280;3989;48.810;9.208;2023-01-29T01:14:09;99888.34;;;-0.30;100.00
7888;BME280;3989;48.810;9.208;2023-01-29T01:16:36;99956.00;;;0.12;100.00
7888;BME280;3989;48.810;9.208;2023-01-29T01:19:03;99869.66;;;-0.40;100.00
7888;BME280;3989;48.810;9.208;2023-01-29T01:21:31;99916.97;;;-0.10;100.00
7888;BME280;3989;48.810;9.208;2023-01-29T01:23:57;99883.09;;;-0.30;100.00
7888;BME280;3989;48.810;9.208;2023-01-29T01:26:24;99887.44;;;-0.29;100.00
7888;BME280;3989;48.810;9.208;2023-01-29T01:28:51;99894.78;;;-0.20;100.00
7888;BME280;3989;48.810;9.208;2023-01-29T01:31:19;99894.44;;;-0.14;100.00
7888;BME280;3989;48.810;9.208;2023-01-29T01:33:46;99870.91;;;-0.31;100.00
7888;BME280;3989;48.810;9.208;2023-01-29T01:36:12;99941.34;;;0.08;100.00
7888;BME280;3989;48.810;9.208;2023-01-29T01:38:40;99955.06;;;0.13;100.00
7888;BME280;3989;48.810;9.208;2023-01-29T01:41:10;99944.13;;;0.05;100.00
7888;BME280;3989;48.810;9.208;2023-01-29T01:43:49;99942.75;;;-0.03;100.00
7888;BME280;3989;48.810;9.208;2023-01-29T01:46:20;99950.41;;;0.02;100.00
7888;BME280;3989;48.810;9.208;2023-01-29T01:48:50;99942.53;;;0.02;100.00
7888;BME280;3989;48.810;9.208;2023-01-29T01:51:19;99949.72;;;-0.02;100.00
7888;BME280;3989;48.810;9.208;2023-01-29T01:53:54;99937.78;;;-0.07;100.00
7888;BME280;3989;48.810;9.208;2023-01-29T01:56:28;99943.63;;;-0.02;100.00
7888;BME280;3989;48.810;9.208;2023-01-29T01:59:02;99942.09;;;-0.06;100.00
7888;BME280;3989;48.810;9.208;2023-01-29T02:01:32;99940.31;;;-0.06;100.00
7888;BME280;3989;48.810;9.208;2023-01-29T02:04:01;99940.47;;;-0.09;100.00
7888;BME280;3989;48.810;9.208;2023-01-29T02:06:48;99939.97;;;-0.15;100.00
7888;BME280;3989;48.810;9.208;2023-01-29T02:09:36;99947.66;;;-0.12;100.00
7888;BME280;3989;48.810;9.208;2023-01-29T02:12:06;99946.16;;;-0.16;100.00
7888;BME280;3989;48.810;9.208;2023-01-29T02:14:35;99940.31;;;-0.21;100.00
7888;BME280;3989;48.810;9.208;2023-01-29T02:17:05;99954.69;;;-0.13;100.00
7888;BME280;3989;48.810;9.208;2023-01-29T02:19:40;99917.53;;;-0.36;100.00
7888;BME280;3989;48.810;9.208;2023-01-29T02:22:31;99958.16;;;-0.12;100.00
7888;BME280;3989;48.810;9.208;2023-01-29T02:25:26;99896.28;;;-0.47;100.00
7888;BME280;3989;48.810;9.208;2023-01-29T02:28:25;99955.66;;;-0.14;100.00
7888;BME280;3989;48.810;9.208;2023-01-29T02:31:00;99952.66;;;-0.23;100.00
7888;BME280;3989;48.810;9.208;2023-01-29T02:33:40;99968.41;;;-0.23;100.00
7888;BME280;3989;48.810;9.208;2023-01-29T02:36:18;99957.13;;;-0.25;100.00
7888;BME280;3989;48.810;9.208;2023-01-29T02:39:00;99950.97;;;-0.24;100.00
7888;BME280;3989;48.810;9.208;2023-01-29T02:41:31;99950.97;;;-0.24;100.00
7888;BME280;3989;48.810;9.208;2023-01-29T02:44:10;99950.03;;;-0.23;100.00
7888;BME280;3989;48.810;9.208;2023-01-29T02:46:49;99952.56;;;-0.22;100.00
7888;BME280;3989;48.810;9.208;2023-01-29T02:49:22;99959.75;;;-0.25;100.00
7888;BME280;3989;48.810;9.208;2023-01-29T02:51:58;99958.91;;;-0.26;100.00
7888;BME280;3989;48.810;9.208;2023-01-29T02:54:31;99955.53;;;-0.28;100.00
7888;BME280;3989;48.810;9.208;2023-01-29T02:57:03;99959.25;;;-0.32;100.00
7888;BME280;3989;48.810;9.208;2023-01-29T02:59:37;99948.91;;;-0.35;100.00
7888;BME280;3989;48.810;9.208;2023-01-29T03:02:08;99920.13;;;-0.52;100.00
7888;BME280;3989;48.810;9.208;2023-01-29T03:04:40;99924.88;;;-0.43;100.00
7888;BME280;3989;48.810;9.208;2023-01-29T03:07:15;99918.44;;;-0.53;100.00
7888;BME280;3989;48.810;9.208;2023-01-29T03:10:04;99931.97;;;-0.45;100.00
7888;BME280;3989;48.810;9.208;2023-01-29T03:12:38;99949.94;;;-0.37;100.00
7888;BME280;3989;48.810;9.208;2023-01-29T03:15:10;99945.94;;;-0.44;100.00
7888;BME280;3989;48.810;9.208;2023-01-29T03:17:45;99950.63;;;-0.34;100.00
7888;BME280;3989;48.810;9.208;2023-01-29T03:20:16;99949.59;;;-0.31;100.00
7888;BME280;3989;48.810;9.208;2023-01-29T03:22:48;99910.47;;;-0.52;100.00
7888;BME280;3989;48.810;9.208;2023-01-29T03:25:17;99912.34;;;-0.54;100.00
7888;BME280;3989;48.810;9.208;2023-01-29T03:28:05;99946.81;;;-0.28;100.00
7888;BME280;3989;48.810;9.208;2023-01-29T03:30:54;99943.34;;;-0.29;100.00
7888;BME280;3989;48.810;9.208;2023-01-29T03:33:42;99948.59;;;-0.29;100.00
7888;BME280;3989;48.810;9.208;2023-01-29T03:36:15;99933.19;;;-0.35;100.00
7888;BME280;3989;48.810;9.208;2023-01-29T03:38:43;99940.06;;;-0.32;100.00
7888;BME280;3989;48.810;9.208;2023-01-29T03:41:16;99946.81;;;-0.28;100.00
7888;BME280;3989;48.810;9.208;2023-01-29T03:43:50;99942.50;;;-0.29;100.00
7888;BME280;3989;48.810;9.208;2023-01-29T03:46:25;99944.34;;;-0.31;100.00
7888;BME280;3989;48.810;9.208;2023-01-29T03:48:58;99936.59;;;-0.33;100.00
7888;BME280;3989;48.810;9.208;2023-01-29T03:51:31;99934.19;;;-0.37;100.00
7888;BME280;3989;48.810;9.208;2023-01-29T03:54:07;99938.34;;;-0.33;100.00
7888;BME280;3989;48.810;9.208;2023-01-29T03:56:52;99938.53;;;-0.36;100.00
7888;BME280;3989;48.810;9.208;2023-01-29T03:59:30;99946.47;;;-0.38;100.00
7888;BME280;3989;48.810;9.208;2023-01-29T04:02:02;99911.06;;;-0.62;100.00
7888;BME280;3989;48.810;9.208;2023-01-29T04:04:33;99853.56;;;-0.98;100.00
7888;BME280;3989;48.810;9.208;2023-01-29T04:07:04;99943.31;;;-0.44;100.00
7888;BME280;3989;48.810;9.208;2023-01-29T04:09:38;99941.81;;;-0.48;100.00
7888;BME280;3989;48.810;9.208;2023-01-29T04:12:08;99952.28;;;-0.48;100.00
7888;BME280;3989;48.810;9.208;2023-01-29T04:14:36;99947.19;;;-0.52;100.00
7888;BME280;3989;48.810;9.208;2023-01-29T04:17:10;99947.13;;;-0.50;100.00
7888;BME280;3989;48.810;9.208;2023-01-29T04:19:38;99949.81;;;-0.52;100.00
7888;BME280;3989;48.810;9.208;2023-01-29T04:22:08;99959.69;;;-0.57;100.00
7888;BME280;3989;48.810;9.208;2023-01-29T04:24:38;99915.31;;;-0.77;100.00
7888;BME280;3989;48.810;9.208;2023-01-29T04:27:14;99950.56;;;-0.65;100.00
7888;BME280;3989;48.810;9.208;2023-01-29T04:30:04;99959.94;;;-0.61;100.00
7888;BME280;3989;48.810;9.208;2023-01-29T04:32:40;99954.78;;;-0.63;100.00
7888;BME280;3989;48.810;9.208;2023-01-29T04:35:24;99925.97;;;-0.80;100.00
7888;BME280;3989;48.810;9.208;2023-01-29T04:38:00;99948.78;;;-0.65;100.00
7888;BME280;3989;48.810;9.208;2023-01-29T04:40:38;99948.16;;;-0.70;100.00
7888;BME280;3989;48.810;9.208;2023-01-29T04:43:13;99870.31;;;-1.18;100.00
7888;BME280;3989;48.810;9.208;2023-01-29T04:45:49;99946.72;;;-0.75;100.00
7888;BME280;3989;48.810;9.208;2023-01-29T04:48:24;99945.09;;;-0.78;100.00
7888;BME280;3989;48.810;9.208;2023-01-29T04:50:55;99917.91;;;-0.92;100.00
7888;BME280;3989;48.810;9.208;2023-01-29T04:53:29;99942.38;;;-0.76;100.00
7888;BME280;3989;48.810;9.208;2023-01-29T04:56:07;99950.03;;;-0.72;100.00
7888;BME280;3989;48.810;9.208;2023-01-29T04:58:40;99949.94;;;-0.70;100.00
7888;BME280;3989;48.810;9.208;2023-01-29T05:01:11;99953.41;;;-0.70;100.00
7888;BME280;3989;48.810;9.208;2023-01-29T05:03:43;99947.41;;;-0.72;100.00
7888;BME280;3989;48.810;9.208;2023-01-29T05:06:13;99957.94;;;-0.73;100.00
7888;BME280;3989;48.810;9.208;2023-01-29T05:08:40;99958.97;;;-0.76;100.00
7888;BME280;3989;48.810;9.208;2023-01-29T05:11:07;99958.22;;;-0.78;100.00
7888;BME280;3989;48.810;9.208;2023-01-29T05:13:38;99905.75;;;-1.11;100.00
7888;BME280;3989;48.810;9.208;2023-01-29T05:16:09;99957.34;;;-0.78;100.00
7888;BME280;3989;48.810;9.208;2023-01-29T05:18:38;99869.03;;;-1.26;100.00
7888;BME280;3989;48.810;9.208;2023-01-29T05:21:07;99945.34;;;-0.82;100.00
7888;BME280;3989;48.810;9.208;2023-01-29T05:23:35;99921.59;;;-0.96;100.00
7888;BME280;3989;48.810;9.208;2023-01-29T05:26:03;99942.47;;;-0.78;100.00
7888;BME280;3989;48.810;9.208;2023-01-29T05:28:30;99953.88;;;-0.79;100.00
7888;BME280;3989;48.810;9.208;2023-01-29T05:30:56;99966.84;;;-0.76;100.00
7888;BME280;3989;48.810;9.208;2023-01-29T05:33:24;99965.81;;;-0.73;100.00
7888;BME280;3989;48.810;9.208;2023-01-29T05:35:51;99966.50;;;-0.70;100.00
7888;BME280;3989;48.810;9.208;2023-01-29T05:38:21;99961.25;;;-0.70;100.00
7888;BME280;3989;48.810;9.208;2023-01-29T05:40:48;99950.19;;;-0.75;100.00
7888;BME280;3989;48.810;9.208;2023-01-29T05:43:16;99951.78;;;-0.72;100.00
7888;BME280;3989;48.810;9.208;2023-01-29T05:45:43;99943.41;;;-0.79;100.00
7888;BME280;3989;48.810;9.208;2023-01-29T05:48:16;99947.72;;;-0.78;100.00
7888;BME280;3989;48.810;9.208;2023-01-29T05:50:43;99939.00;;;-0.78;100.00
7888;BME280;3989;48.810;9.208;2023-01-29T05:53:10;99876.78;;;-1.08;100.00
7888;BME280;3989;48.810;9.208;2023-01-29T05:55:38;99910.00;;;-0.75;100.00
7888;BME280;3989;48.810;9.208;2023-01-29T05:58:04;99902.53;;;-0.83;100.00
7888;BME280;3989;48.810;9.208;2023-01-29T06:00:31;99902.38;;;-0.80;100.00
7888;BME280;3989;48.810;9.208;2023-01-29T06:02:58;99915.47;;;-0.80;100.00
7888;BME280;3989;48.810;9.208;2023-01-29T06:05:25;99921.75;;;-0.82;100.00
7888;BME280;3989;48.810;9.208;2023-01-29T06:07:52;99926.06;;;-0.81;100.00
7888;BME280;3989;48.810;9.208;2023-01-29T06:10:18;99927.84;;;-0.82;100.00
7888;BME280;3989;48.810;9.208;2023-01-29T06:12:46;99925.06;;;-0.79;100.00
7888;BME280;3989;48.810;9.208;2023-01-29T06:15:13;99927.66;;;-0.79;100.00
7888;BME280;3989;48.810;9.208;2023-01-29T06:17:40;99930.19;;;-0.77;100.00
7888;BME280;3989;48.810;9.208;2023-01-29T06:20:08;99852.22;;;-1.22;100.00
7888;BME280;3989;48.810;9.208;2023-01-29T06:22:35;99903.25;;;-0.96;100.00
7888;BME280;3989;48.810;9.208;2023-01-29T06:25:02;99930.56;;;-0.68;100.00
7888;BME280;3989;48.810;9.208;2023-01-29T06:27:29;99934.19;;;-0.70;100.00
7888;BME280;3989;48.810;9.208;2023-01-29T06:29:57;99933.06;;;-0.65;100.00
7888;BME280;3989;48.810;9.208;2023-01-29T06:32:24;99940.13;;;-0.67;100.00
7888;BME280;3989;48.810;9.208;2023-01-29T06:34:50;99929.22;;;-0.75;100.00
7888;BME280;3989;48.810;9.208;2023-01-29T06:37:17;99918.09;;;-0.80;100.00
7888;BME280;3989;48.810;9.208;2023-01-29T06:39:44;99939.44;;;-0.70;100.00
7888;BME280;3989;48.810;9.208;2023-01-29T06:42:11;99946.63;;;-0.74;100.00
7888;BME280;3989;48.810;9.208;2023-01-29T06:44:37;99940.69;;;-0.77;100.00
7888;BME280;3989;48.810;9.208;2023-01-29T06:47:05;99932.44;;;-0.87;100.00
7888;BME280;3989;48.810;9.208;2023-01-29T06:49:32;99939.06;;;-0.80;100.00
7888;BME280;3989;48.810;9.208;2023-01-29T06:51:59;99876.63;;;-1.22;100.00
7888;BME280;3989;48.810;9.208;2023-01-29T06:54:25;99917.16;;;-0.94;100.00
7888;BME280;3989;48.810;9.208;2023-01-29T07:07:14;99893.25;;;-1.23;100.00
7888;BME280;3989;48.810;9.208;2023-01-29T07:09:41;99954.81;;;-0.80;100.00
7888;BME280;3989;48.810;9.208;2023-01-29T07:12:09;99951.31;;;-0.80;100.00
7888;BME280;3989;48.810;9.208;2023-01-29T07:14:36;99951.84;;;-0.74;100.00
7888;BME280;3989;48.810;9.208;2023-01-29T07:17:02;99946.38;;;-0.69;100.00
7888;BME280;3989;48.810;9.208;2023-01-29T07:19:29;99955.69;;;-0.64;100.00
7888;BME280;3989;48.810;9.208;2023-01-29T07:21:55;99962.47;;;-0.60;100.00
7888;BME280;3989;48.810;9.208;2023-01-29T07:24:27;99964.88;;;-0.55;100.00
7888;BME280;3989;48.810;9.208;2023-01-29T07:26:54;99962.25;;;-0.55;100.00
7888;BME280;3989;48.810;9.208;2023-01-29T07:29:21;99968.09;;;-0.50;100.00
7888;BME280;3989;48.810;9.208;2023-01-29T07:31:47;99957.59;;;-0.50;100.00
7888;BME280;3989;48.810;9.208;2023-01-29T07:34:14;99953.97;;;-0.47;100.00
7888;BME280;3989;48.810;9.208;2023-01-29T07:36:41;99969.31;;;-0.40;100.00
7888;BME280;3989;48.810;9.208;2023-01-29T07:39:07;99975.13;;;-0.35;100.00
7888;BME280;3989;48.810;9.208;2023-01-29T07:41:35;99944.31;;;-0.47;100.00
7888;BME280;3989;48.810;9.208;2023-01-29T07:44:02;99980.75;;;-0.25;100.00
7888;BME280;3989;48.810;9.208;2023-01-29T07:46:29;99943.47;;;-0.47;100.00
7888;BME280;3989;48.810;9.208;2023-01-29T07:48:57;99983.13;;;-0.21;100.00
7888;BME280;3989;48.810;9.208;2023-01-29T07:51:23;99985.00;;;-0.23;100.00
7888;BME280;3989;48.810;9.208;2023-01-29T07:53:50;99990.16;;;-0.21;100.00
7888;BME280;3989;48.810;9.208;2023-01-29T07:56:17;99987.28;;;-0.17;100.00
7888;BME280;3989;48.810;9.208;2023-01-29T07:58:45;99999.41;;;-0.14;100.00
7888;BME280;3989;48.810;9.208;2023-01-29T08:01:12;99996.69;;;-0.13;100.00
7888;BME280;3989;48.810;9.208;2023-01-29T08:03:38;99994.84;;;-0.11;100.00
7888;BME280;3989;48.810;9.208;2023-01-29T08:06:05;99985.53;;;-0.16;100.00
7888;BME280;3989;48.810;9.208;2023-01-29T08:08:32;99987.88;;;-0.12;100.00
7888;BME280;3989;48.810;9.208;2023-01-29T08:11:00;99974.94;;;-0.15;100.00
7888;BME280;3989;48.810;9.208;2023-01-29T08:13:30;99978.13;;;-0.10;100.00
7888;BME280;3989;48.810;9.208;2023-01-29T08:15:59;99959.94;;;-0.28;100.00
7888;BME280;3989;48.810;9.208;2023-01-29T08:18:29;99935.53;;;-0.46;100.00
7888;BME280;3989;48.810;9.208;2023-01-29T08:21:03;99918.59;;;-0.56;100.00
7888;BME280;3989;48.810;9.208;2023-01-29T08:23:37;99996.38;;;-0.07;100.00
7888;BME280;3989;48.810;9.208;2023-01-29T08:26:04;99952.16;;;-0.30;100.00
7888;BME280;3989;48.810;9.208;2023-01-29T08:28:31;99970.44;;;-0.13;100.00
7888;BME280;3989;48.810;9.208;2023-01-29T08:30:59;99977.16;;;-0.07;100.00
7888;BME280;3989;48.810;9.208;2023-01-29T08:33:26;99996.97;;;0.14;100.00
7888;BME280;3989;48.810;9.208;2023-01-29T08:35:54;99974.19;;;-0.01;100.00
7888;BME280;3989;48.810;9.208;2023-01-29T08:38:21;100012.31;;;0.22;100.00
7888;BME280;3989;48.810;9.208;2023-01-29T08:40:48;100009.16;;;0.15;100.00
7888;BME280;3989;48.810;9.208;2023-01-29T08:43:15;100009.84;;;0.19;100.00
7888;BME280;3989;48.810;9.208;2023-01-29T08:45:43;100021.78;;;0.24;100.00
7888;BME280;3989;48.810;9.208;2023-01-29T08:48:11;100013.56;;;0.30;100.00
7888;BME280;3989;48.810;9.208;2023-01-29T08:50:37;100019.34;;;0.37;100.00
7888;BME280;3989;48.810;9.208;2023-01-29T08:53:06;100021.28;;;0.33;100.00
7888;BME280;3989;48.810;9.208;2023-01-29T08:55:34;100017.38;;;0.25;100.00
7888;BME280;3989;48.810;9.208;2023-01-29T08:58:02;100020.69;;;0.28;100.00
7888;BME280;3989;48.810;9.208;2023-01-29T09:00:29;100009.41;;;0.26;100.00
7888;BME280;3989;48.810;9.208;2023-01-29T09:02:56;100022.81;;;0.37;100.00
7888;BME280;3989;48.810;9.208;2023-01-29T09:05:25;100021.09;;;0.52;100.00
7888;BME280;3989;48.810;9.208;2023-01-29T09:07:52;99997.28;;;0.55;100.00
7888;BME280;3989;48.810;9.208;2023-01-29T09:10:19;99981.53;;;0.55;100.00
7888;BME280;3989;48.810;9.208;2023-01-29T09:12:45;99995.34;;;0.74;100.00
7888;BME280;3989;48.810;9.208;2023-01-29T09:15:12;100010.72;;;0.96;100.00
7888;BME280;3989;48.810;9.208;2023-01-29T09:17:39;100025.03;;;1.20;100.00
7888;BME280;3989;48.810;9.208;2023-01-29T09:20:08;100020.00;;;1.31;100.00
7888;BME280;3989;48.810;9.208;2023-01-29T09:22:37;100017.28;;;1.33;100.00
7888;BME280;3989;48.810;9.208;2023-01-29T09:25:04;100021.25;;;1.40;100.00
7888;BME280;3989;48.810;9.208;2023-01-29T09:27:31;100012.13;;;1.31;100.00
7888;BME280;3989;48.810;9.208;2023-01-29T09:29:57;100032.75;;;1.23;100.00
7888;BME280;3989;48.810;9.208;2023-01-29T09:32:24;100029.72;;;1.15;100.00
7888;BME280;3989;48.810;9.208;2023-01-29T09:34:52;100033.78;;;1.21;100.00
7888;BME280;3989;48.810;9.208;2023-01-29T09:37:19;100032.75;;;1.23;100.00
7888;BME280;3989;48.810;9.208;2023-01-29T09:39:48;99961.56;;;0.82;100.00
7888;BME280;3989;48.810;9.208;2023-01-29T09:42:21;100021.25;;;1.40;100.00
7888;BME280;3989;48.810;9.208;2023-01-29T09:44:54;100017.53;;;1.58;100.00
7888;BME280;3989;48.810;9.208;2023-01-29T09:47:26;100013.47;;;1.67;100.00
7888;BME280;3989;48.810;9.208;2023-01-29T09:49:56;99992.50;;;1.65;100.00
7888;BME280;3989;48.810;9.208;2023-01-29T09:52:26;99995.53;;;1.73;100.00
7888;BME280;3989;48.810;9.208;2023-01-29T09:55:01;99987.81;;;1.84;100.00
7888;BME280;3989;48.810;9.208;2023-01-29T09:57:35;99974.84;;;2.09;100.00
7888;BME280;3989;48.810;9.208;2023-01-29T10:00:05;99969.88;;;2.32;100.00
7888;BME280;3989;48.810;9.208;2023-01-29T10:02:46;99971.69;;;2.58;100.00
7888;BME280;3989;48.810;9.208;2023-01-29T10:05:36;99952.94;;;3.02;100.00
7888;BME280;3989;48.810;9.208;2023-01-29T10:08:28;99936.91;;;3.43;98.81
7888;BME280;3989;48.810;9.208;2023-01-29T10:11:06;99953.19;;;3.75;87.77
7888;BME280;3989;48.810;9.208;2023-01-29T10:13:41;99950.94;;;3.94;86.35
7888;BME280;3989;48.810;9.208;2023-01-29T10:16:21;99941.81;;;3.98;78.80
7888;BME280;3989;48.810;9.208;2023-01-29T10:19:10;99935.66;;;3.74;82.80
7888;BME280;3989;48.810;9.208;2023-01-29T10:21:51;99942.22;;;3.68;83.23
7888;BME280;3989;48.810;9.208;2023-01-29T10:24:31;99948.44;;;3.67;78.90
7888;BME280;3989;48.810;9.208;2023-01-29T10:27:02;99949.91;;;3.71;84.39
7888;BME280;3989;48.810;9.208;2023-01-29T10:29:40;99952.22;;;3.63;79.37
7888;BME280;3989;48.810;9.208;2023-01-29T10:32:10;99963.41;;;3.66;77.47
7888;BME280;3989;48.810;9.208;2023-01-29T10:34:43;99959.00;;;3.67;80.48
7888;BME280;3989;48.810;9.208;2023-01-29T10:37:15;99952.34;;;3.49;75.18
7888;BME280;3989;48.810;9.208;2023-01-29T10:39:43;99889.34;;;3.19;78.73
7888;BME280;3989;48.810;9.208;2023-01-29T10:42:18;99947.69;;;3.52;81.42
7888;BME280;3989;48.810;9.208;2023-01-29T10:44:55;99913.16;;;3.30;82.95
7888;BME280;3989;48.810;9.208;2023-01-29T10:47:51;99965.72;;;3.46;81.05
7888;BME280;3989;48.810;9.208;2023-01-29T10:50:38;99944.81;;;3.17;86.15
7888;BME280;3989;48.810;9.208;2023-01-29T10:53:16;99955.38;;;3.17;84.14
7888;BME280;3989;48.810;9.208;2023-01-29T10:55:51;99916.44;;;2.96;87.78
7888;BME280;3989;48.810;9.208;2023-01-29T10:58:30;99881.06;;;2.86;92.46
7888;BME280;3989;48.810;9.208;2023-01-29T11:00:59;99873.94;;;3.00;86.34
7888;BME280;3989;48.810;9.208;2023-01-29T11:03:27;99943.16;;;3.29;83.56
7888;BME280;3989;48.810;9.208;2023-01-29T11:06:00;99952.88;;;3.41;86.43
7888;BME280;3989;48.810;9.208;2023-01-29T11:08:33;99937.56;;;3.46;82.80
7888;BME280;3989;48.810;9.208;2023-01-29T11:11:06;99950.44;;;3.38;81.39
7888;BME280;3989;48.810;9.208;2023-01-29T11:13:40;99946.53;;;3.18;84.24
7888;BME280;3989;48.810;9.208;2023-01-29T11:16:09;99948.31;;;3.31;84.92
7888;BME280;3989;48.810;9.208;2023-01-29T11:18:54;99938.53;;;3.45;86.03
7888;BME280;3989;48.810;9.208;2023-01-29T11:21:22;99935.88;;;3.70;84.58
7888;BME280;3989;48.810;9.208;2023-01-29T11:23:49;99931.63;;;3.81;78.01
7888;BME280;3989;48.810;9.208;2023-01-29T11:26:17;99929.22;;;3.78;78.51
7888;BME280;3989;48.810;9.208;2023-01-29T11:28:49;99925.19;;;3.72;78.12
7888;BME280;3989;48.810;9.208;2023-01-29T11:31:19;99917.72;;;3.53;80.11
7888;BME280;3989;48.810;9.208;2023-01-29T11:33:47;99909.69;;;3.55;83.10
7888;BME280;3989;48.810;9.208;2023-01-29T11:36:21;99905.13;;;3.69;83.73
7888;BME280;3989;48.810;9.208;2023-01-29T11:39:07;99904.03;;;3.85;80.57
7888;BME280;3989;48.810;9.208;2023-01-29T11:41:42;99903.84;;;3.88;81.85
7888;BME280;3989;48.810;9.208;2023-01-29T11:44:28;99891.56;;;3.87;76.06
7888;BME280;3989;48.810;9.208;2023-01-29T11:46:55;99887.66;;;3.92;78.01
7888;BME280;3989;48.810;9.208;2023-01-29T11:49:30;99899.34;;;4.01;76.10
7888;BME280;3989;48.810;9.208;2023-01-29T11:52:00;99903.63;;;3.91;73.34
7888;BME280;3989;48.810;9.208;2023-01-29T11:54:31;99906.16;;;3.80;76.82
7888;BME280;3989;48.810;9.208;2023-01-29T11:57:00;99909.91;;;3.52;76.82
7888;BME280;3989;48.810;9.208;2023-01-29T11:59:50;99897.97;;;3.21;83.28
7888;BME280;3989;48.810;9.208;2023-01-29T12:02:22;99886.16;;;3.01;88.16
7888;BME280;3989;48.810;9.208;2023-01-29T12:04:51;99882.56;;;2.90;89.95
7888;BME280;3989;48.810;9.208;2023-01-29T12:07:19;99874.97;;;2.98;93.88
7888;BME280;3989;48.810;9.208;2023-01-29T12:09:54;99862.53;;;3.12;93.70
7888;BME280;3989;48.810;9.208;2023-01-29T12:12:30;99856.19;;;3.15;89.41
7888;BME280;3989;48.810;9.208;2023-01-29T12:15:15;99843.75;;;3.04;93.20
7888;BME280;3989;48.810;9.208;2023-01-29T12:17:46;99835.75;;;3.06;91.82
7888;BME280;3989;48.810;9.208;2023-01-29T12:20:21;99831.31;;;3.06;94.66
7888;BME280;3989;48.810;9.208;2023-01-29T12:22:54;99839.84;;;3.23;93.36
7888;BME280;3989;48.810;9.208;2023-01-29T12:25:33;99799.31;;;3.11;90.51
7888;BME280;3989;48.810;9.208;2023-01-29T12:28:11;99821.16;;;3.26;88.27
7888;BME280;3989;48.810;9.208;2023-01-29T12:30:51;99810.06;;;3.21;90.21
7888;BME280;3989;48.810;9.208;2023-01-29T12:33:30;99737.66;;;2.76;87.63
7888;BME280;3989;48.810;9.208;2023-01-29T12:36:08;99795.03;;;3.10;91.31
7888;BME280;3989;48.810;9.208;2023-01-29T12:38:38;99783.84;;;3.06;91.19
7888;BME280;3989;48.810;9.208;2023-01-29T12:41:22;99797.13;;;3.05;92.70
7888;BME280;3989;48.810;9.208;2023-01-29T12:43:52;99791.41;;;3.11;88.80
7888;BME280;3989;48.810;9.208;2023-01-29T12:46:25;99788.44;;;3.28;91.26
7888;BME280;3989;48.810;9.208;2023-01-29T12:48:54;99773.09;;;3.46;88.74
7888;BME280;3989;48.810;9.208;2023-01-29T12:51:25;99766.31;;;3.54;85.86
7888;BME280;3989;48.810;9.208;2023-01-29T12:53:57;99772.28;;;3.69;86.37
7888;BME280;3989;48.810;9.208;2023-01-29T12:56:27;99733.13;;;3.39;82.79
7888;BME280;3989;48.810;9.208;2023-01-29T12:58:56;99756.44;;;3.45;86.35
7888;BME280;3989;48.810;9.208;2023-01-29T13:01:30;99761.72;;;3.45;85.66
7888;BME280;3989;48.810;9.208;2023-01-29T13:04:01;99766.59;;;3.39;87.75
7888;BME280;3989;48.810;9.208;2023-01-29T13:08:58;99753.00;;;3.56;83.13
7888;BME280;3989;48.810;9.208;2023-01-29T13:11:34;99704.91;;;3.40;85.92
7888;BME280;3989;48.810;9.208;2023-01-29T13:14:07;99734.94;;;3.86;82.95
7888;BME280;3989;48.810;9.208;2023-01-29T13:16:44;99742.91;;;3.97;78.84
7888;BME280;3989;48.810;9.208;2023-01-29T13:19:19;99736.88;;;3.95;79.28
7888;BME280;3989;48.810;9.208;2023-01-29T13:21:49;99741.59;;;4.03;76.89
7888;BME280;3989;48.810;9.208;2023-01-29T13:24:20;99736.03;;;3.95;77.02
7888;BME280;3989;48.810;9.208;2023-01-29T13:26:47;99740.38;;;3.72;78.58
7888;BME280;3989;48.810;9.208;2023-01-29T13:29:22;99713.31;;;3.57;81.17
7888;BME280;3989;48.810;9.208;2023-01-29T13:31:53;99724.81;;;3.80;81.51
7888;BME280;3989;48.810;9.208;2023-01-29T13:34:22;99664.56;;;3.50;83.37
7888;BME280;3989;48.810;9.208;2023-01-29T13:36:52;99737.03;;;4.05;82.60
7888;BME280;3989;48.810;9.208;2023-01-29T13:39:23;99711.88;;;3.88;77.96
7888;BME280;3989;48.810;9.208;2023-01-29T13:41:54;99718.97;;;3.88;77.83
7888;BME280;3989;48.810;9.208;2023-01-29T13:44:23;99737.97;;;3.93;79.00
7888;BME280;3989;48.810;9.208;2023-01-29T13:46:57;99587.00;;;3.05;81.46
7888;BME280;3989;48.810;9.208;2023-01-29T13:49:30;99741.63;;;4.14;80.78
7888;BME280;3989;48.810;9.208;2023-01-29T13:52:13;99752.56;;;4.20;78.07
7888;BME280;3989;48.810;9.208;2023-01-29T13:54:49;99712.09;;;3.85;75.67
7888;BME280;3989;48.810;9.208;2023-01-29T13:57:44;99752.72;;;3.95;79.56
7888;BME280;3989;48.810;9.208;2023-01-29T14:03:48;99747.84;;;3.78;85.25
7888;BME280;3989;48.810;9.208;2023-01-29T14:12:34;99696.69;;;3.08;90.81
7888;BME280;3989;48.810;9.208;2023-01-29T14:15:14;99736.56;;;3.16;95.77